Time;durP1;ratioP1;P1;durP2;ratioP2;P2;SDS_P1;SDS_P2;PMS_P1;PMS_P2;Temp;Humidity;BMP_temperature;BMP_pressure;BME280_temperature;BME280_humidity;BME280_pressure;Samples;Min_cycle;Max_cycle;Signal;HPM_P1;HPM_P2
2023/11/16 00:02:37;;;;;;;0.60;0.60;;;;;;;;;;6206731;23;20163;-92
2023/11/16 00:05:44;;;;;;;2.33;0.82;;;;;;;;;;6207948;22;20182;-91
2023/11/16 00:08:49;;;;;;;0.40;0.40;;;;;;;;;;6206215;23;20190;-93
2023/11/16 00:11:54;;;;;;;0.45;0.45;;;;;;;;;;6207250;23;20486;-93
2023/11/16 00:14:59;;;;;;;0.35;0.35;;;;;;;;;;6206649;23;20168;-90
2023/11/16 00:18:06;;;;;;;0.50;0.50;;;;;;;;;;6207464;23;20497;-91
2023/11/16 00:21:11;;;;;;;0.95;0.40;;;;;;;;;;6208913;22;20167;-91
2023/11/16 00:24:16;;;;;;;0.40;0.40;;;;;;;;;;6208939;22;20258;-89
2023/11/16 00:27:21;;;;;;;0.50;0.50;;;;;;;;;;6210244;23;20171;-92
2023/11/16 00:30:26;;;;;;;0.40;0.40;;;;;;;;;;6208249;23;20254;-91
2023/11/16 00:33:33;;;;;;;0.50;0.50;;;;;;;;;;6209179;23;20168;-94
2023/11/16 00:36:39;;;;;;;0.30;0.30;;;;;;;;;;6209620;22;20213;-91
2023/11/16 00:39:44;;;;;;;0.30;0.30;;;;;;;;;;6208138;22;20186;-90
2023/11/16 00:42:50;;;;;;;0.30;0.30;;;;;;;;;;6209574;23;20191;-93
2023/11/16 00:45:56;;;;;;;0.55;0.50;;;;;;;;;;6208124;23;20173;-93
2023/11/16 00:49:04;;;;;;;0.20;0.20;;;;;;;;;;6209513;23;20368;-91
2023/11/16 00:52:09;;;;;;;0.60;0.60;;;;;;;;;;6209129;22;20163;-93
2023/11/16 00:55:17;;;;;;;0.30;0.30;;;;;;;;;;6208488;22;20163;-90
2023/11/16 00:58:22;;;;;;;0.20;0.20;;;;;;;;;;6207754;23;20236;-92
2023/11/16 01:01:29;;;;;;;0.30;0.30;;;;;;;;;;6208263;23;20171;-91
2023/11/16 01:04:37;;;;;;;0.30;0.30;;;;;;;;;;6208977;23;20152;-91
2023/11/16 01:07:43;;;;;;;0.30;0.30;;;;;;;;;;6208795;23;20219;-91
2023/11/16 01:10:49;;;;;;;0.93;0.80;;;;;;;;;;6208483;22;20166;-91
2023/11/16 01:13:54;;;;;;;0.30;0.30;;;;;;;;;;6210207;23;20175;-90
2023/11/16 01:17:04;;;;;;;1.75;0.60;;;;;;;;;;6208731;23;20228;-89
2023/11/16 01:20:18;;;;;;;0.25;0.25;;;;;;;;;;6207916;23;20163;-92
2023/11/16 01:23:24;;;;;;;0.30;0.30;;;;;;;;;;6209693;23;20151;-90
2023/11/16 01:26:32;;;;;;;0.52;0.52;;;;;;;;;;6208456;23;20605;-90
2023/11/16 01:29:37;;;;;;;0.20;0.20;;;;;;;;;;6209102;23;20195;-91
2023/11/16 01:32:42;;;;;;;0.30;0.30;;;;;;;;;;6207934;23;20615;-90
2023/11/16 01:35:51;;;;;;;0.30;0.30;;;;;;;;;;6207553;23;20596;-92
2023/11/16 01:38:57;;;;;;;0.20;0.20;;;;;;;;;;6207412;23;20168;-91
2023/11/16 01:42:02;;;;;;;0.40;0.40;;;;;;;;;;6207494;22;20274;-93
2023/11/16 01:45:28;;;;;;;0.30;0.30;;;;;;;;;;6208230;23;20619;-91
2023/11/16 01:48:33;;;;;;;0.40;0.40;;;;;;;;;;6206677;23;20191;-89
2023/11/16 01:51:43;;;;;;;0.30;0.30;;;;;;;;;;6206859;22;20167;-93
2023/11/16 01:54:49;;;;;;;0.45;0.45;;;;;;;;;;6206468;22;20167;-91
2023/11/16 01:57:55;;;;;;;0.30;0.30;;;;;;;;;;6207589;23;20174;-91
2023/11/16 02:01:00;;;;;;;0.65;0.65;;;;;;;;;;6208862;23;20246;-91
2023/11/16 02:04:06;;;;;;;1.55;1.10;;;;;;;;;;6205650;23;20175;-93
2023/11/16 02:07:12;;;;;;;0.52;0.52;;;;;;;;;;6207365;22;20206;-91
2023/11/16 02:10:18;;;;;;;0.38;0.38;;;;;;;;;;6206063;23;20199;-91
2023/11/16 02:13:24;;;;;;;1.48;1.38;;;;;;;;;;6207070;23;20702;-91
2023/11/16 02:16:29;;;;;;;0.22;0.22;;;;;;;;;;6208395;23;20186;-92
2023/11/16 02:19:34;;;;;;;0.30;0.30;;;;;;;;;;6207290;23;20171;-91
2023/11/16 02:22:42;;;;;;;0.30;0.30;;;;;;;;;;6206699;22;20194;-92
2023/11/16 02:25:49;;;;;;;0.30;0.30;;;;;;;;;;6208221;22;20183;-90
2023/11/16 02:28:54;;;;;;;0.30;0.30;;;;;;;;;;6207820;23;20199;-91
2023/11/16 02:31:59;;;;;;;0.30;0.30;;;;;;;;;;6206798;23;20179;-92
2023/11/16 02:35:04;;;;;;;0.50;0.50;;;;;;;;;;6205335;23;20210;-93
2023/11/16 02:38:10;;;;;;;0.20;0.20;;;;;;;;;;6207915;22;20466;-93
2023/11/16 02:41:17;;;;;;;0.73;0.73;;;;;;;;;;6206295;22;20191;-90
2023/11/16 02:44:22;;;;;;;0.30;0.30;;;;;;;;;;6207317;23;20167;-93
2023/11/16 02:47:28;;;;;;;0.35;0.35;;;;;;;;;;6207020;23;20606;-90
2023/11/16 02:50:32;;;;;;;0.20;0.20;;;;;;;;;;6206295;23;20171;-92
2023/11/16 02:53:38;;;;;;;0.30;0.30;;;;;;;;;;6207037;22;20154;-92
2023/11/16 02:56:45;;;;;;;0.20;0.20;;;;;;;;;;6207332;22;20336;-91
2023/11/16 02:59:51;;;;;;;0.20;0.20;;;;;;;;;;6206810;23;20266;-92
2023/11/16 03:02:57;;;;;;;0.20;0.20;;;;;;;;;;6206751;23;20174;-89
2023/11/16 03:06:03;;;;;;;0.40;0.40;;;;;;;;;;6206986;23;20224;-93
2023/11/16 03:09:15;;;;;;;0.30;0.30;;;;;;;;;;6207559;22;20234;-93
2023/11/16 03:12:22;;;;;;;0.43;0.43;;;;;;;;;;6209655;22;20166;-93
2023/11/16 03:15:27;;;;;;;0.30;0.30;;;;;;;;;;6207645;23;20295;-93
2023/11/16 03:18:35;;;;;;;0.20;0.20;;;;;;;;;;6207180;23;20164;-90
2023/11/16 03:21:41;;;;;;;0.30;0.30;;;;;;;;;;6207109;23;20170;-93
2023/11/16 03:24:46;;;;;;;0.28;0.28;;;;;;;;;;6207105;22;20144;-92
2023/11/16 03:27:54;;;;;;;0.93;0.65;;;;;;;;;;6208792;22;20171;-91
2023/11/16 03:31:03;;;;;;;0.30;0.30;;;;;;;;;;6207287;23;20167;-91
2023/11/16 03:34:08;;;;;;;0.35;0.35;;;;;;;;;;6207371;23;20182;-93
2023/11/16 03:37:14;;;;;;;0.30;0.30;;;;;;;;;;6209412;23;20151;-92
2023/11/16 03:40:19;;;;;;;0.55;0.55;;;;;;;;;;6207290;22;20215;-92
2023/11/16 03:43:27;;;;;;;0.30;0.30;;;;;;;;;;6207878;22;20167;-93
2023/11/16 03:46:33;;;;;;;0.30;0.30;;;;;;;;;;6206994;23;20167;-93
2023/11/16 03:49:38;;;;;;;0.60;0.38;;;;;;;;;;6205830;23;20187;-91
2023/11/16 03:52:45;;;;;;;0.30;0.30;;;;;;;;;;6205743;23;20597;-92
2023/11/16 03:55:51;;;;;;;0.25;0.25;;;;;;;;;;6207898;23;20223;-92
2023/11/16 03:58:58;;;;;;;0.30;0.30;;;;;;;;;;6209357;22;20723;-93
2023/11/16 04:02:04;;;;;;;0.30;0.30;;;;;;;;;;6208244;23;20163;-91
2023/11/16 04:05:09;;;;;;;0.40;0.40;;;;;;;;;;6208196;23;20230;-92
2023/11/16 04:08:15;;;;;;;3.95;1.27;;;;;;;;;;6209653;23;20167;-91
2023/11/16 04:11:20;;;;;;;6.30;1.60;;;;;;;;;;6207474;22;20155;-91
2023/11/16 04:14:27;;;;;;;2.63;1.05;;;;;;;;;;6209875;22;20212;-94
2023/11/16 04:17:34;;;;;;;3.45;1.30;;;;;;;;;;6209239;23;20171;-92
2023/11/16 04:20:38;;;;;;;3.58;1.08;;;;;;;;;;6208425;23;20229;-92
2023/11/16 04:23:44;;;;;;;4.57;1.15;;;;;;;;;;6207694;23;20158;-92
2023/11/16 04:26:49;;;;;;;3.70;1.20;;;;;;;;;;6208068;23;20155;-93
2023/11/16 04:29:56;;;;;;;5.10;1.35;;;;;;;;;;6210135;22;20198;-90
2023/11/16 04:33:03;;;;;;;3.33;1.13;;;;;;;;;;6210085;23;20489;-92
2023/11/16 04:36:09;;;;;;;3.53;1.10;;;;;;;;;;6209870;23;20167;-92
2023/11/16 04:39:14;;;;;;;3.78;1.38;;;;;;;;;;6208630;23;20175;-92
2023/11/16 04:42:20;;;;;;;5.38;1.45;;;;;;;;;;6208577;22;20174;-90
2023/11/16 04:45:26;;;;;;;5.07;1.55;;;;;;;;;;6209654;22;20151;-93
2023/11/16 04:48:34;;;;;;;9.20;2.75;;;;;;;;;;6209929;23;20163;-93
2023/11/16 04:51:40;;;;;;;9.88;2.35;;;;;;;;;;6209496;23;20183;-89
2023/11/16 04:54:45;;;;;;;6.15;1.95;;;;;;;;;;6208159;23;20211;-91
2023/11/16 04:57:50;;;;;;;11.18;2.33;;;;;;;;;;6210705;22;20281;-92
2023/11/16 05:00:57;;;;;;;8.85;1.98;;;;;;;;;;6209642;22;20171;-88
2023/11/16 05:04:02;;;;;;;5.00;1.90;;;;;;;;;;6209740;23;20610;-93
2023/11/16 05:07:07;;;;;;;8.32;1.85;;;;;;;;;;6210461;23;20492;-92
2023/11/16 05:10:16;;;;;;;6.20;1.27;;;;;;;;;;6208777;23;20650;-93
2023/11/16 05:13:21;;;;;;;7.70;1.60;;;;;;;;;;6209175;22;20155;-90
2023/11/16 05:16:28;;;;;;;5.75;1.90;;;;;;;;;;6208149;22;20230;-92
2023/11/16 05:19:33;;;;;;;8.48;3.67;;;;;;;;;;6210882;23;20172;-91
2023/11/16 05:22:38;;;;;;;20.85;7.13;;;;;;;;;;6211222;23;20171;-94
2023/11/16 05:25:43;;;;;;;9.90;4.22;;;;;;;;;;6210674;23;20159;-93
2023/11/16 05:28:49;;;;;;;9.23;3.80;;;;;;;;;;6209519;23;20175;-91
2023/11/16 05:31:55;;;;;;;9.27;2.78;;;;;;;;;;6211820;22;20261;-92
2023/11/16 05:35:00;;;;;;;5.38;1.77;;;;;;;;;;6210278;23;20175;-90
2023/11/16 05:38:05;;;;;;;2.88;1.30;;;;;;;;;;6206993;23;20171;-92
2023/11/16 05:41:13;;;;;;;7.15;1.80;;;;;;;;;;6208065;23;20186;-90
2023/11/16 05:44:18;;;;;;;5.55;1.38;;;;;;;;;;6210975;22;20214;-91
2023/11/16 05:47:25;;;;;;;5.40;1.42;;;;;;;;;;6211903;22;20496;-89
2023/11/16 05:50:32;;;;;;;7.05;1.10;;;;;;;;;;6214001;23;20330;-90
2023/11/16 05:53:38;;;;;;;8.25;1.30;;;;;;;;;;6212267;23;20235;-93
2023/11/16 05:56:48;;;;;;;2.97;1.30;;;;;;;;;;6209981;23;20196;-89
2023/11/16 05:59:53;;;;;;;6.95;1.77;;;;;;;;;;6210057;22;20175;-92
2023/11/16 06:03:01;;;;;;;4.90;1.73;;;;;;;;;;6214327;23;20236;-89
2023/11/16 06:06:07;;;;;;;8.27;1.83;;;;;;;;;;6212028;23;20167;-91
2023/11/16 06:09:14;;;;;;;5.72;1.77;;;;;;;;;;6212401;23;20190;-89
2023/11/16 06:12:19;;;;;;;8.60;1.67;;;;;;;;;;6215216;23;20206;-89
2023/11/16 06:15:31;;;;;;;6.03;1.85;;;;;;;;;;6215758;22;20158;-91
2023/11/16 06:18:38;;;;;;;9.50;1.83;;;;;;;;;;6215309;22;20171;-91
2023/11/16 06:21:44;;;;;;;11.07;2.35;;;;;;;;;;6210068;23;20206;-91
2023/11/16 06:24:49;;;;;;;8.57;1.80;;;;;;;;;;6212091;23;20193;-90
2023/11/16 06:27:54;;;;;;;5.43;1.92;;;;;;;;;;6212662;23;20263;-91
2023/11/16 06:30:59;;;;;;;7.50;1.48;;;;;;;;;;6211987;23;20190;-93
2023/11/16 06:34:06;;;;;;;5.07;1.60;;;;;;;;;;6211028;23;20171;-93
2023/11/16 06:37:11;;;;;;;4.40;2.40;;;;;;;;;;6215338;23;20210;-92
2023/11/16 06:40:17;;;;;;;7.67;2.40;;;;;;;;;;6213067;23;20175;-92
2023/11/16 06:43:24;;;;;;;9.93;1.88;;;;;;;;;;6211475;23;20220;-91
2023/11/16 06:46:29;;;;;;;8.30;1.87;;;;;;;;;;6213802;23;20170;-93
2023/11/16 06:49:37;;;;;;;6.68;1.88;;;;;;;;;;6211799;22;20190;-93
2023/11/16 06:52:44;;;;;;;12.38;2.58;;;;;;;;;;6211761;23;20243;-91
2023/11/16 06:55:53;;;;;;;13.80;2.13;;;;;;;;;;6215099;23;20179;-93
2023/11/16 06:59:00;;;;;;;7.32;2.20;;;;;;;;;;6214499;23;20191;-92
2023/11/16 07:02:07;;;;;;;5.20;2.22;;;;;;;;;;6217202;23;20167;-91
2023/11/16 07:05:16;;;;;;;10.43;2.40;;;;;;;;;;6219952;22;20218;-91
2023/11/16 07:11:42;;;;;;;8.02;2.60;;;;;;;;;;6220552;23;20235;-91
2023/11/16 07:14:51;;;;;;;7.95;2.50;;;;;;;;;;6218183;22;20214;-90
2023/11/16 07:18:07;;;;;;;5.53;2.03;;;;;;;;;;6219391;23;20194;-92
2023/11/16 07:21:15;;;;;;;3.97;1.70;;;;;;;;;;6219327;23;20171;-91
2023/11/16 07:24:24;;;;;;;9.02;2.47;;;;;;;;;;6218207;23;20170;-91
2023/11/16 07:27:30;;;;;;;6.32;2.40;;;;;;;;;;6199718;23;20168;-90
2023/11/16 07:30:36;;;;;;;13.52;3.50;;;;;;;;;;6218351;22;20222;-91
2023/11/16 07:33:44;;;;;;;10.52;3.28;;;;;;;;;;6220957;22;20155;-92
2023/11/16 08:56:47;;;;;;;5.68;2.17;;;;;;;;;;6190295;22;20971;-89
2023/11/16 09:00:25;;;;;;;6.75;1.73;;;;;;;;;;6213299;23;20263;-92
2023/11/16 09:03:28;;;;;;;8.98;1.52;;;;;;;;;;6184343;23;20215;-91
2023/11/16 09:06:37;;;;;;;9.73;1.83;;;;;;;;;;6208525;22;20167;-91
2023/11/16 09:09:45;;;;;;;7.57;2.35;;;;;;;;;;6211910;23;20194;-89
2023/11/16 09:12:56;;;;;;;3.13;1.25;;;;;;;;;;6211686;23;20175;-92
2023/11/16 09:16:01;;;;;;;5.50;1.80;;;;;;;;;;6212198;23;20183;-89
2023/11/16 09:19:11;;;;;;;5.75;1.70;;;;;;;;;;6212519;23;20154;-93
2023/11/16 09:22:17;;;;;;;5.55;1.80;;;;;;;;;;6213707;22;20230;-92
2023/11/16 09:25:25;;;;;;;6.03;1.48;;;;;;;;;;6213689;23;20172;-91
2023/11/16 09:28:41;;;;;;;5.88;1.45;;;;;;;;;;6213985;23;20178;-90
2023/11/16 09:31:47;;;;;;;5.00;1.35;;;;;;;;;;6213163;23;20167;-91
2023/11/16 09:34:53;;;;;;;9.25;1.75;;;;;;;;;;6211789;22;20234;-93
2023/11/16 09:38:08;;;;;;;4.70;1.60;;;;;;;;;;6218846;23;20171;-90
2023/11/16 09:41:21;;;;;;;4.72;1.40;;;;;;;;;;6213623;23;20251;-93
2023/11/16 09:44:29;;;;;;;8.00;1.40;;;;;;;;;;6215381;23;20212;-92
2023/11/16 09:47:42;;;;;;;6.82;1.63;;;;;;;;;;6212558;22;20273;-93
2023/11/16 09:50:49;;;;;;;7.82;1.75;;;;;;;;;;6212286;22;20219;-93
2023/11/16 09:53:54;;;;;;;9.48;1.58;;;;;;;;;;6212380;23;20167;-94
2023/11/16 09:57:00;;;;;;;4.40;1.27;;;;;;;;;;6210776;23;20190;-93
2023/11/16 10:00:23;;;;;;;6.50;1.40;;;;;;;;;;6213307;23;20171;-91
2023/11/16 10:03:48;;;;;;;6.38;1.65;;;;;;;;;;6232196;22;20159;-93
2023/11/16 10:06:54;;;;;;;11.15;1.75;;;;;;;;;;6213531;23;20171;-92
2023/11/16 10:10:00;;;;;;;6.70;1.40;;;;;;;;;;6212808;23;20194;-92
2023/11/16 10:13:08;;;;;;;8.45;1.73;;;;;;;;;;6215207;22;20171;-90
2023/11/16 10:16:16;;;;;;;6.90;1.48;;;;;;;;;;6215665;22;20167;-91
2023/11/16 10:19:23;;;;;;;7.07;1.30;;;;;;;;;;6214711;23;20167;-92
2023/11/16 10:22:31;;;;;;;8.68;2.00;;;;;;;;;;6214955;23;20175;-92
2023/11/16 10:25:38;;;;;;;5.90;1.58;;;;;;;;;;6215504;23;20222;-91
2023/11/16 10:28:43;;;;;;;6.25;1.60;;;;;;;;;;6210271;22;20259;-92
2023/11/16 10:31:48;;;;;;;6.50;1.42;;;;;;;;;;6210756;22;20194;-91
2023/11/16 10:38:15;;;;;;;4.68;1.20;;;;;;;;;;6213766;23;20168;-90
2023/11/16 10:41:20;;;;;;;3.00;1.40;;;;;;;;;;6211895;23;20210;-90
2023/11/16 10:44:27;;;;;;;7.20;1.80;;;;;;;;;;6210487;22;20237;-92
2023/11/16 10:47:33;;;;;;;7.10;1.80;;;;;;;;;;6210817;22;20218;-93
2023/11/16 10:50:39;;;;;;;6.70;1.77;;;;;;;;;;6210003;23;20741;-89
2023/11/16 10:53:45;;;;;;;5.20;1.60;;;;;;;;;;6210197;23;20675;-90
2023/11/16 10:56:54;;;;;;;5.80;1.42;;;;;;;;;;6209062;23;20183;-90
2023/11/16 11:00:00;;;;;;;5.72;1.50;;;;;;;;;;6209651;22;20167;-91
2023/11/16 11:03:06;;;;;;;3.88;1.23;;;;;;;;;;6209295;23;20183;-90
2023/11/16 11:06:21;;;;;;;6.90;1.70;;;;;;;;;;6210387;23;20250;-89
2023/11/16 11:09:40;;;;;;;6.15;1.40;;;;;;;;;;6209631;23;20170;-90
2023/11/16 11:12:47;;;;;;;5.65;1.73;;;;;;;;;;6212125;22;20167;-91
2023/11/16 11:15:57;;;;;;;4.13;1.40;;;;;;;;;;6211458;23;20622;-90
2023/11/16 11:19:04;;;;;;;5.10;1.27;;;;;;;;;;6210845;23;20214;-91
2023/11/16 11:22:16;;;;;;;6.97;1.50;;;;;;;;;;6209336;23;20219;-92
2023/11/16 11:25:25;;;;;;;7.20;1.75;;;;;;;;;;6211296;23;20282;-92
2023/11/16 11:28:30;;;;;;;6.80;1.38;;;;;;;;;;6207529;23;20257;-92
2023/11/16 11:31:36;;;;;;;10.70;1.63;;;;;;;;;;6210377;23;20186;-92
2023/11/16 11:34:43;;;;;;;7.38;1.67;;;;;;;;;;6208686;23;20188;-91
2023/11/16 11:37:49;;;;;;;7.90;1.50;;;;;;;;;;6210878;22;20159;-92
2023/11/16 11:40:59;;;;;;;8.00;1.55;;;;;;;;;;6210594;22;20190;-91
2023/11/16 11:44:05;;;;;;;6.70;1.60;;;;;;;;;;6209362;23;20166;-92
2023/11/16 11:47:14;;;;;;;5.05;1.50;;;;;;;;;;6208511;23;20175;-92
2023/11/16 11:50:22;;;;;;;7.00;1.55;;;;;;;;;;6209572;23;20198;-91
2023/11/16 11:53:29;;;;;;;9.02;1.63;;;;;;;;;;6209483;22;20167;-92
2023/11/16 11:56:34;;;;;;;8.45;1.70;;;;;;;;;;6211776;23;20183;-92
2023/11/16 11:59:40;;;;;;;5.65;2.10;;;;;;;;;;6212223;23;20166;-92
2023/11/16 12:02:48;;;;;;;4.22;1.30;;;;;;;;;;6209956;23;20171;-91
2023/11/16 12:05:58;;;;;;;4.70;1.35;;;;;;;;;;6210707;22;20681;-92
2023/11/16 12:09:06;;;;;;;7.03;1.73;;;;;;;;;;6210006;23;20222;-91
2023/11/16 12:12:11;;;;;;;8.95;1.40;;;;;;;;;;6208690;23;20267;-90
2023/11/16 12:15:17;;;;;;;7.10;1.60;;;;;;;;;;6211357;23;20166;-91
2023/11/16 12:18:23;;;;;;;6.95;1.48;;;;;;;;;;6212106;23;20167;-93
2023/11/16 12:21:29;;;;;;;8.10;1.48;;;;;;;;;;6210368;22;20167;-93
2023/11/16 12:24:36;;;;;;;9.18;1.58;;;;;;;;;;6211249;22;20174;-91
2023/11/16 12:27:43;;;;;;;4.82;1.70;;;;;;;;;;6208515;23;20261;-89
2023/11/16 12:30:49;;;;;;;3.72;1.67;;;;;;;;;;6211311;23;20190;-91
2023/11/16 12:33:56;;;;;;;7.45;1.52;;;;;;;;;;6211955;23;20246;-91
2023/11/16 12:40:23;;;;;;;4.65;1.20;;;;;;;;;;6210187;23;20170;-90
2023/11/16 12:43:28;;;;;;;6.88;1.60;;;;;;;;;;6208691;23;20167;-89
2023/11/16 12:46:35;;;;;;;6.35;1.30;;;;;;;;;;6209383;23;20171;-90
2023/11/16 12:49:41;;;;;;;6.07;1.45;;;;;;;;;;6208021;23;20240;-88
2023/11/16 12:52:47;;;;;;;5.18;1.42;;;;;;;;;;6207652;22;20182;-91
2023/11/16 12:55:58;;;;;;;5.60;1.73;;;;;;;;;;6210190;22;20492;-92
2023/11/16 12:59:04;;;;;;;6.70;1.70;;;;;;;;;;6211985;23;20191;-91
2023/11/16 13:02:10;;;;;;;4.75;1.33;;;;;;;;;;6211360;23;20666;-91
2023/11/16 13:05:18;;;;;;;6.57;1.67;;;;;;;;;;6209301;23;20170;-92
2023/11/16 13:08:23;;;;;;;6.97;1.50;;;;;;;;;;6211118;23;20158;-90
2023/11/16 13:11:31;;;;;;;2.95;1.17;;;;;;;;;;6212402;22;20237;-91
2023/11/16 13:14:36;;;;;;;12.00;2.42;;;;;;;;;;6210695;23;20171;-95
2023/11/16 13:17:42;;;;;;;6.18;1.50;;;;;;;;;;6208800;23;20170;-93
2023/11/16 13:20:47;;;;;;;7.05;2.30;;;;;;;;;;6210863;23;20215;-92
2023/11/16 13:23:53;;;;;;;7.15;2.05;;;;;;;;;;6208141;22;20187;-90
2023/11/16 13:27:00;;;;;;;6.68;1.10;;;;;;;;;;6210896;23;20171;-91
2023/11/16 13:30:06;;;;;;;6.80;1.38;;;;;;;;;;6209847;23;20166;-90
2023/11/16 13:33:13;;;;;;;4.72;1.38;;;;;;;;;;6210266;23;20318;-90
2023/11/16 13:36:19;;;;;;;3.72;1.50;;;;;;;;;;6208852;23;20167;-90
2023/11/16 13:39:27;;;;;;;7.57;1.90;;;;;;;;;;6211178;23;20178;-90
2023/11/16 13:42:35;;;;;;;8.32;1.90;;;;;;;;;;6215731;23;20549;-91
2023/11/16 13:45:42;;;;;;;6.25;1.10;;;;;;;;;;6213085;23;20171;-90
2023/11/16 13:48:47;;;;;;;7.90;1.52;;;;;;;;;;6212600;23;20193;-90
2023/11/16 13:51:52;;;;;;;8.10;1.27;;;;;;;;;;6210858;23;20271;-91
2023/11/16 13:54:58;;;;;;;8.30;1.83;;;;;;;;;;6211602;22;20158;-93
2023/11/16 13:58:05;;;;;;;4.55;1.60;;;;;;;;;;6211796;22;20191;-94
2023/11/16 14:01:14;;;;;;;4.78;1.58;;;;;;;;;;6210816;23;20171;-91
2023/11/16 14:04:19;;;;;;;6.10;1.52;;;;;;;;;;6208100;23;20171;-89
2023/11/16 14:07:26;;;;;;;4.63;1.42;;;;;;;;;;6208077;23;20167;-90
2023/11/16 14:10:31;;;;;;;10.88;2.08;;;;;;;;;;6208610;23;20227;-90
2023/11/16 14:13:41;;;;;;;6.38;1.60;;;;;;;;;;6210386;23;20163;-90
2023/11/16 14:16:45;;;;;;;6.07;1.60;;;;;;;;;;6208278;23;20619;-90
2023/11/16 14:19:51;;;;;;;6.22;1.70;;;;;;;;;;6209033;23;20187;-90
2023/11/16 14:22:56;;;;;;;8.88;1.70;;;;;;;;;;6209437;23;20175;-92
2023/11/16 14:26:00;;;;;;;6.05;1.48;;;;;;;;;;6208787;23;20154;-91
2023/11/16 14:29:07;;;;;;;7.57;1.83;;;;;;;;;;6210492;23;20171;-90
2023/11/16 14:32:12;;;;;;;7.68;1.77;;;;;;;;;;6208481;23;20194;-92
2023/11/16 14:35:19;;;;;;;6.93;1.88;;;;;;;;;;6209429;23;20170;-93
2023/11/16 14:41:43;;;;;;;7.32;2.15;;;;;;;;;;6210668;23;20171;-91
2023/11/16 14:44:52;;;;;;;10.18;2.63;;;;;;;;;;6209865;23;20163;-90
2023/11/16 14:47:58;;;;;;;6.20;2.08;;;;;;;;;;6207780;23;20171;-90
2023/11/16 14:51:04;;;;;;;6.22;1.58;;;;;;;;;;6209160;23;20183;-92
2023/11/16 14:54:10;;;;;;;9.98;2.92;;;;;;;;;;6230346;22;20175;-90
2023/11/16 14:57:15;;;;;;;34.58;11.77;;;;;;;;;;6210383;23;20321;-92
2023/11/16 15:00:25;;;;;;;53.25;20.15;;;;;;;;;;6210794;23;20175;-91
2023/11/16 15:03:30;;;;;;;8.68;2.72;;;;;;;;;;6213249;23;20179;-91
2023/11/16 15:06:36;;;;;;;9.95;2.35;;;;;;;;;;6214649;23;20170;-92
2023/11/16 15:09:42;;;;;;;9.82;2.85;;;;;;;;;;6213744;22;20171;-91
2023/11/16 15:12:47;;;;;;;8.95;3.17;;;;;;;;;;6211797;22;20283;-91
2023/11/16 15:15:58;;;;;;;9.85;3.55;;;;;;;;;;6216879;23;20175;-92
2023/11/16 15:19:06;;;;;;;12.38;5.03;;;;;;;;;;6217459;23;20195;-90
2023/11/16 15:22:13;;;;;;;13.70;6.30;;;;;;;;;;6214783;23;20166;-91
2023/11/16 15:25:19;;;;;;;7.30;2.70;;;;;;;;;;6212951;23;20214;-91
2023/11/16 15:28:24;;;;;;;9.98;3.08;;;;;;;;;;6210193;22;20496;-91
2023/11/16 15:31:34;;;;;;;11.55;3.97;;;;;;;;;;6208977;23;20313;-92
2023/11/16 15:34:39;;;;;;;9.15;3.55;;;;;;;;;;6209155;23;20614;-92
2023/11/16 15:37:44;;;;;;;5.95;2.80;;;;;;;;;;6209426;23;20175;-91
2023/11/16 15:40:49;;;;;;;8.48;3.53;;;;;;;;;;6212445;23;20219;-90
2023/11/16 15:43:54;;;;;;;8.43;3.28;;;;;;;;;;6209726;23;20248;-92
2023/11/16 15:47:01;;;;;;;9.82;3.22;;;;;;;;;;6208507;23;20195;-89
2023/11/16 15:50:07;;;;;;;17.65;4.50;;;;;;;;;;6209511;23;20201;-90
2023/11/16 15:53:15;;;;;;;18.80;8.40;;;;;;;;;;6210593;23;20351;-91
2023/11/16 15:56:22;;;;;;;13.02;4.45;;;;;;;;;;6210447;22;20210;-91
2023/11/16 15:59:28;;;;;;;10.52;4.07;;;;;;;;;;6209522;22;20607;-91
2023/11/16 16:02:35;;;;;;;12.13;4.50;;;;;;;;;;6214833;23;20171;-91
2023/11/16 16:05:41;;;;;;;16.13;6.80;;;;;;;;;;6212640;22;20167;-91
2023/11/16 16:08:50;;;;;;;19.02;5.88;;;;;;;;;;6211866;23;20171;-91
2023/11/16 16:11:56;;;;;;;31.15;9.88;;;;;;;;;;6212147;23;20179;-90
2023/11/16 16:15:03;;;;;;;28.50;9.18;;;;;;;;;;6211935;22;20167;-90
2023/11/16 16:18:10;;;;;;;27.23;8.20;;;;;;;;;;6211477;23;20171;-90
2023/11/16 16:21:15;;;;;;;18.70;5.63;;;;;;;;;;6211818;23;20190;-90
2023/11/16 16:24:20;;;;;;;16.83;6.38;;;;;;;;;;6216205;23;20159;-91
2023/11/16 16:27:25;;;;;;;24.08;6.30;;;;;;;;;;6213413;22;20204;-90
2023/11/16 16:33:52;;;;;;;9.95;4.18;;;;;;;;;;6213116;23;20194;-92
2023/11/16 16:36:57;;;;;;;10.43;4.57;;;;;;;;;;6213179;23;20597;-92
2023/11/16 16:40:06;;;;;;;10.15;3.95;;;;;;;;;;6213513;23;20171;-89
2023/11/16 16:43:11;;;;;;;9.02;3.42;;;;;;;;;;6212318;22;20176;-91
2023/11/16 16:46:18;;;;;;;10.88;4.43;;;;;;;;;;6211508;22;20164;-92
2023/11/16 16:49:27;;;;;;;14.65;4.30;;;;;;;;;;6215281;23;20278;-92
2023/11/16 16:52:33;;;;;;;25.63;10.80;;;;;;;;;;6213074;23;20203;-91
2023/11/16 16:55:39;;;;;;;10.95;4.57;;;;;;;;;;6217937;23;20183;-90
2023/11/16 16:58:45;;;;;;;15.45;4.82;;;;;;;;;;6213885;23;20230;-92
2023/11/16 17:01:49;;;;;;;11.05;4.40;;;;;;;;;;6214091;23;20168;-92
2023/11/16 17:04:58;;;;;;;18.00;7.88;;;;;;;;;;6216811;23;20162;-93
2023/11/16 17:08:04;;;;;;;15.90;6.47;;;;;;;;;;6216797;23;20235;-92
2023/11/16 17:14:29;;;;;;;10.13;4.28;;;;;;;;;;6215680;23;20170;-92
2023/11/16 17:17:34;;;;;;;8.70;4.10;;;;;;;;;;6214429;23;20210;-91
2023/11/16 17:20:42;;;;;;;12.20;4.20;;;;;;;;;;6213946;22;20214;-91
2023/11/16 17:23:50;;;;;;;12.93;5.00;;;;;;;;;;6213243;23;20171;-88
2023/11/16 17:26:56;;;;;;;20.73;6.88;;;;;;;;;;6215454;22;20155;-94
2023/11/16 17:30:03;;;;;;;11.05;4.75;;;;;;;;;;6213723;23;20250;-90
2023/11/16 17:33:09;;;;;;;9.95;4.60;;;;;;;;;;6216997;23;20194;-92
2023/11/16 17:36:15;;;;;;;16.55;6.38;;;;;;;;;;6213516;23;20166;-92
2023/11/16 17:39:22;;;;;;;12.85;4.22;;;;;;;;;;6213528;23;20163;-89
2023/11/16 17:42:28;;;;;;;11.05;4.82;;;;;;;;;;6212244;22;20162;-90
2023/11/16 17:45:33;;;;;;;13.20;4.25;;;;;;;;;;6213465;22;20207;-91
2023/11/16 17:48:40;;;;;;;10.00;4.88;;;;;;;;;;6217019;23;20167;-92
2023/11/16 17:51:48;;;;;;;16.52;5.88;;;;;;;;;;6215230;23;20187;-91
2023/11/16 17:54:54;;;;;;;23.65;7.65;;;;;;;;;;6213711;23;20175;-90
2023/11/16 17:57:59;;;;;;;14.52;7.22;;;;;;;;;;6212088;22;20179;-92
2023/11/16 18:01:04;;;;;;;16.08;6.82;;;;;;;;;;6214813;22;20200;-92
2023/11/16 18:04:10;;;;;;;18.05;7.07;;;;;;;;;;6215489;23;20247;-92
2023/11/16 18:07:17;;;;;;;18.48;8.32;;;;;;;;;;6216410;23;20170;-92
2023/11/16 18:10:23;;;;;;;17.90;7.78;;;;;;;;;;6213837;23;20665;-91
2023/11/16 18:13:32;;;;;;;10.65;5.18;;;;;;;;;;6234231;22;20238;-91
2023/11/16 18:16:38;;;;;;;13.73;5.07;;;;;;;;;;6216596;22;20212;-92
2023/11/16 18:19:44;;;;;;;24.17;9.43;;;;;;;;;;6216394;23;20170;-91
2023/11/16 18:22:53;;;;;;;16.13;7.85;;;;;;;;;;6213800;23;20182;-91
2023/11/16 18:26:00;;;;;;;22.92;10.50;;;;;;;;;;6211412;23;20536;-92
2023/11/16 18:29:05;;;;;;;16.33;7.43;;;;;;;;;;6212233;22;20155;-91
2023/11/16 18:32:11;;;;;;;21.00;9.68;;;;;;;;;;6211620;23;20269;-92
2023/11/16 18:35:16;;;;;;;17.52;6.88;;;;;;;;;;6213640;23;20167;-93
2023/11/16 18:38:28;;;;;;;20.85;7.68;;;;;;;;;;6213008;23;20194;-92
2023/11/16 18:41:34;;;;;;;20.73;7.88;;;;;;;;;;6214980;22;20178;-92
2023/11/16 18:44:40;;;;;;;16.85;7.00;;;;;;;;;;6216428;22;20159;-90
2023/11/16 18:47:48;;;;;;;16.02;7.13;;;;;;;;;;6216511;22;20167;-92
2023/11/16 18:50:54;;;;;;;18.25;7.15;;;;;;;;;;6216230;23;20199;-92
2023/11/16 18:54:09;;;;;;;31.13;15.90;;;;;;;;;;6235812;23;20263;-92
2023/11/16 18:57:15;;;;;;;21.02;8.60;;;;;;;;;;6217297;22;20195;-93
2023/11/16 19:03:39;;;;;;;16.95;6.53;;;;;;;;;;6216500;23;20172;-91
2023/11/16 19:06:45;;;;;;;16.65;6.07;;;;;;;;;;6215153;23;20171;-95
2023/11/16 19:09:56;;;;;;;18.40;6.72;;;;;;;;;;6216188;23;20167;-93
2023/11/16 19:13:04;;;;;;;19.90;7.07;;;;;;;;;;6217222;22;20232;-91
2023/11/16 19:16:10;;;;;;;16.05;6.20;;;;;;;;;;6214958;23;20170;-89
2023/11/16 19:19:15;;;;;;;14.07;6.03;;;;;;;;;;6212998;23;20234;-92
2023/11/16 19:22:22;;;;;;;13.80;5.50;;;;;;;;;;6213846;23;20328;-91
2023/11/16 19:25:32;;;;;;;17.77;6.18;;;;;;;;;;6215632;23;20170;-91
2023/11/16 19:28:38;;;;;;;14.35;6.35;;;;;;;;;;6215420;22;20215;-92
2023/11/16 19:31:45;;;;;;;16.02;5.90;;;;;;;;;;6219157;22;20162;-93
2023/11/16 19:34:52;;;;;;;14.43;5.88;;;;;;;;;;6217798;22;20171;-90
2023/11/16 19:37:58;;;;;;;15.05;6.28;;;;;;;;;;6218592;23;20146;-92
2023/11/16 19:41:09;;;;;;;19.67;6.65;;;;;;;;;;6217667;23;20242;-90
2023/11/16 19:44:15;;;;;;;15.15;5.63;;;;;;;;;;6217963;22;20210;-92
2023/11/16 19:47:22;;;;;;;11.70;4.68;;;;;;;;;;6218545;22;20158;-94
2023/11/16 19:50:28;;;;;;;9.88;5.00;;;;;;;;;;6216827;23;20225;-93
2023/11/16 19:53:34;;;;;;;11.93;4.47;;;;;;;;;;6217629;23;20644;-92
2023/11/16 19:56:42;;;;;;;11.88;4.25;;;;;;;;;;6216293;23;20171;-92
2023/11/16 19:59:48;;;;;;;11.68;4.15;;;;;;;;;;6217535;22;20250;-94
2023/11/16 20:02:54;;;;;;;11.18;4.55;;;;;;;;;;6220009;22;20175;-93
2023/11/16 20:06:00;;;;;;;13.93;6.10;;;;;;;;;;6220637;22;20167;-94
2023/11/16 20:09:08;;;;;;;13.50;5.38;;;;;;;;;;6216214;23;20171;-92
2023/11/16 20:12:17;;;;;;;17.83;5.70;;;;;;;;;;6219491;23;20158;-92
2023/11/16 20:15:23;;;;;;;13.55;5.47;;;;;;;;;;6217454;22;20505;-92
2023/11/16 20:18:29;;;;;;;4.20;2.80;;;;;;;;;;6221531;23;20186;-92